createdAt,value
2018-04-20T00:00:16.287Z,61.0
2018-04-20T00:01:16.328Z,61.0
2018-04-20T00:02:16.695Z,61.6
2018-04-20T00:03:16.958Z,61.6
2018-04-20T00:04:17.216Z,62.0
2018-04-20T00:05:16.471Z,62.2
2018-04-20T00:06:16.742Z,62.0
2018-04-20T00:07:16.995Z,62.5
2018-04-20T00:08:16.259Z,62.1
2018-04-20T00:09:16.530Z,62.2
2018-04-20T00:10:16.790Z,62.5
2018-04-20T00:11:16.847Z,62.5
2018-04-20T00:12:17.109Z,62.3
2018-04-20T00:13:16.367Z,62.2
2018-04-20T00:14:16.629Z,62.9
2018-04-20T00:15:16.900Z,63.1
2018-04-20T00:16:17.164Z,63.0
2018-04-20T00:17:16.425Z,63.0
2018-04-20T00:18:16.705Z,62.9
2018-04-20T00:19:16.972Z,63.0
2018-04-20T00:20:17.253Z,63.5
2018-04-20T00:21:16.288Z,63.8
2018-04-20T00:22:16.556Z,63.7
2018-04-20T00:23:16.822Z,63.8
2018-04-20T00:24:17.082Z,63.8
2018-04-20T00:25:16.349Z,63.7
2018-04-20T00:26:16.603Z,64.2
2018-04-20T00:27:16.850Z,64.5
2018-04-20T00:28:17.108Z,64.2
2018-04-20T00:29:16.364Z,64.3
2018-04-20T00:30:16.628Z,64.3
2018-04-20T00:31:16.686Z,64.8
2018-04-20T00:32:16.953Z,65.0
2018-04-20T00:33:17.231Z,65.0
2018-04-20T00:34:16.491Z,65.0
2018-04-20T00:35:17.008Z,65.0
2018-04-20T00:36:16.278Z,65.5
2018-04-20T00:37:16.556Z,65.5
2018-04-20T00:38:16.819Z,65.8
2018-04-20T00:39:17.079Z,65.3
2018-04-20T00:40:16.352Z,65.5
2018-04-20T00:41:16.389Z,66.5
2018-04-20T00:42:16.650Z,66.3
2018-04-20T00:43:16.957Z,66.2
2018-04-20T00:44:17.220Z,66.0
2018-04-20T00:45:16.646Z,66.2
2018-04-20T00:46:16.911Z,66.5
2018-04-20T00:47:17.182Z,66.6
2018-04-20T00:48:16.445Z,66.7
2018-04-20T00:49:16.709Z,67.0
2018-04-20T00:50:16.979Z,67.2
2018-04-20T00:51:17.032Z,67.8
2018-04-20T00:52:16.291Z,67.8
2018-04-20T00:53:16.541Z,67.7
2018-04-20T00:54:16.805Z,67.7
2018-04-20T00:55:17.071Z,67.5
2018-04-20T00:56:16.335Z,67.5
2018-04-20T00:57:16.598Z,67.6
2018-04-20T00:58:16.864Z,67.7
2018-04-20T00:59:17.121Z,68.2
2018-04-20T01:00:16.401Z,68.4
2018-04-20T01:01:16.427Z,68.4
2018-04-20T01:02:16.688Z,68.4
2018-04-20T01:03:16.953Z,68.4
2018-04-20T01:04:17.210Z,68.5
2018-04-20T01:05:16.472Z,68.5
2018-04-20T01:06:16.735Z,68.8
2018-04-20T01:07:16.993Z,68.2
2018-04-20T01:08:17.254Z,68.2
2018-04-20T01:09:16.531Z,68.0
2018-04-20T01:10:16.793Z,68.3
2018-04-20T01:11:16.855Z,68.4
2018-04-20T01:12:17.224Z,68.5
2018-04-20T01:13:16.540Z,68.5
2018-04-20T01:14:16.805Z,68.6
2018-04-20T01:15:17.081Z,68.6
2018-04-20T01:16:16.340Z,68.8
2018-04-20T01:17:16.598Z,69.0
2018-04-20T01:18:16.848Z,69.5
2018-04-20T01:19:17.115Z,69.5
2018-04-20T01:20:16.397Z,69.5
2018-04-20T01:21:16.431Z,69.2
2018-04-20T01:22:16.686Z,69.5
2018-04-20T01:23:16.962Z,69.2
2018-04-20T01:24:17.230Z,69.8
2018-04-20T01:25:16.492Z,69.9
2018-04-20T01:26:16.753Z,70.0
2018-04-20T01:27:17.022Z,70.0
2018-04-20T01:28:16.279Z,69.8
2018-04-20T01:29:16.538Z,70.3
2018-04-20T01:30:16.805Z,70.4
2018-04-20T01:31:16.839Z,70.5
2018-04-20T01:32:17.099Z,70.8
2018-04-20T01:33:16.367Z,70.7
2018-04-20T01:34:16.632Z,70.5
2018-04-20T01:35:16.903Z,71.6
2018-04-20T01:36:17.177Z,71.2
2018-04-20T01:37:16.668Z,71.2
2018-04-20T01:38:16.934Z,71.3
2018-04-20T01:39:17.202Z,71.5
2018-04-20T01:40:16.474Z,71.5
2018-04-20T01:41:16.491Z,72.0
2018-04-20T01:42:16.758Z,71.8
2018-04-20T01:43:17.021Z,71.3
2018-04-20T01:44:16.292Z,71.7
2018-04-20T01:45:16.565Z,71.8
2018-04-20T01:46:16.822Z,72.0
2018-04-20T01:47:17.607Z,72.1
2018-04-20T01:48:16.868Z,72.0
2018-04-20T01:49:17.135Z,72.3
2018-04-20T01:50:16.409Z,72.7
2018-04-20T01:51:16.462Z,73.0
2018-04-20T01:52:16.721Z,72.9
2018-04-20T01:53:17.361Z,73.0
2018-04-20T01:54:16.622Z,73.2
2018-04-20T01:55:16.893Z,72.8
2018-04-20T01:56:17.163Z,72.9
2018-04-20T01:57:16.426Z,73.4
2018-04-20T01:58:16.730Z,73.1
2018-04-20T01:59:16.984Z,73.2
2018-04-20T02:00:17.258Z,73.8
2018-04-20T02:01:16.288Z,74.0
2018-04-20T02:02:16.552Z,73.9
2018-04-20T02:03:16.811Z,73.8
2018-04-20T02:04:17.064Z,73.8
2018-04-20T02:05:16.323Z,73.8
2018-04-20T02:06:16.587Z,74.0
2018-04-20T02:07:16.842Z,74.0
2018-04-20T02:08:17.139Z,74.1
2018-04-20T02:09:16.405Z,73.8
2018-04-20T02:10:16.674Z,74.4
2018-04-20T02:11:16.732Z,74.2
2018-04-20T02:12:16.995Z,74.5
2018-04-20T02:13:16.296Z,74.5
2018-04-20T02:14:16.584Z,74.5
2018-04-20T02:15:16.851Z,74.0
2018-04-20T02:16:17.112Z,74.7
2018-04-20T02:17:16.374Z,74.5
2018-04-20T02:18:16.641Z,75.0
2018-04-20T02:19:16.902Z,75.0
2018-04-20T02:20:17.208Z,74.9
2018-04-20T02:21:17.214Z,74.8
2018-04-20T02:22:16.484Z,75.0
2018-04-20T02:23:16.745Z,74.5
2018-04-20T02:24:17.002Z,74.7
2018-04-20T02:25:16.272Z,74.9
2018-04-20T02:26:16.531Z,75.3
2018-04-20T02:27:16.790Z,75.3
2018-04-20T02:28:17.044Z,75.6
2018-04-20T02:29:16.377Z,75.7
2018-04-20T02:30:16.653Z,76.0
2018-04-20T02:31:16.692Z,75.6
2018-04-20T02:32:16.964Z,76.0
2018-04-20T02:33:17.230Z,76.0
2018-04-20T02:34:16.518Z,76.8
2018-04-20T02:35:16.783Z,76.3
2018-04-20T02:36:17.107Z,76.5
2018-04-20T02:37:16.373Z,76.7
2018-04-20T02:38:16.641Z,76.5
2018-04-20T02:39:17.217Z,76.8
2018-04-20T02:40:16.494Z,76.8
2018-04-20T02:41:16.526Z,77.0
2018-04-20T02:42:16.795Z,77.2
2018-04-20T02:43:17.062Z,77.3
2018-04-20T02:44:16.325Z,77.3
2018-04-20T02:45:16.593Z,77.3
2018-04-20T02:46:16.861Z,77.8
2018-04-20T02:47:17.132Z,77.7
2018-04-20T02:48:16.397Z,76.9
2018-04-20T02:49:16.663Z,76.9
2018-04-20T02:50:16.932Z,77.2
2018-04-20T02:51:16.974Z,77.4
2018-04-20T02:52:17.239Z,77.4
2018-04-20T02:53:16.498Z,78.0
2018-04-20T02:54:16.781Z,78.2
2018-04-20T02:55:17.059Z,78.2
2018-04-20T02:56:16.322Z,78.3
2018-04-20T02:57:16.589Z,78.5
2018-04-20T02:58:16.854Z,78.5
2018-04-20T02:59:17.134Z,78.8
2018-04-20T03:00:16.418Z,78.8
2018-04-20T03:01:16.453Z,78.9
2018-04-20T03:02:16.713Z,78.8
2018-04-20T03:03:16.978Z,78.8
2018-04-20T03:04:17.235Z,79.0
2018-04-20T03:05:16.501Z,78.8
2018-04-20T03:06:16.762Z,79.0
2018-04-20T03:07:17.034Z,78.8
2018-04-20T03:08:16.300Z,78.8
2018-04-20T03:09:16.571Z,79.0
2018-04-20T03:10:16.845Z,79.0
2018-04-20T03:11:16.884Z,78.8
2018-04-20T03:12:17.141Z,78.8
2018-04-20T03:13:16.404Z,78.8
2018-04-20T03:14:16.686Z,78.8
2018-04-20T03:15:16.951Z,79.0
2018-04-20T03:16:17.213Z,79.0
2018-04-20T03:17:16.481Z,79.0
2018-04-20T03:18:16.745Z,79.5
2018-04-20T03:19:17.011Z,79.3
2018-04-20T03:20:16.271Z,79.3
2018-04-20T03:21:16.333Z,79.4
2018-04-20T03:22:16.605Z,79.3
2018-04-20T03:23:16.868Z,79.6
2018-04-20T03:24:17.481Z,79.6
2018-04-20T03:25:16.750Z,79.7
2018-04-20T03:26:17.011Z,79.8
2018-04-20T03:27:16.282Z,79.8
2018-04-20T03:28:16.538Z,79.9
2018-04-20T03:29:16.802Z,79.8
2018-04-20T03:30:17.073Z,80.0
2018-04-20T03:31:17.121Z,80.0
2018-04-20T03:32:16.396Z,79.8
2018-04-20T03:33:16.663Z,80.0
2018-04-20T03:34:16.924Z,80.2
2018-04-20T03:35:17.183Z,80.8
2018-04-20T03:36:16.448Z,80.8
2018-04-20T03:37:16.704Z,80.8
2018-04-20T03:38:16.964Z,80.8
2018-04-20T03:39:17.230Z,80.8
2018-04-20T03:40:16.493Z,80.8
2018-04-20T03:41:16.554Z,80.9
2018-04-20T03:42:16.809Z,80.8
2018-04-20T03:43:17.082Z,80.8
2018-04-20T03:44:16.355Z,80.8
2018-04-20T03:45:16.623Z,80.2
2018-04-20T03:46:16.883Z,80.0
2018-04-20T03:47:17.144Z,80.0
2018-04-20T03:48:16.400Z,79.8
2018-04-20T03:49:16.661Z,80.7
2018-04-20T03:50:16.934Z,80.6
2018-04-20T03:51:16.980Z,80.8
2018-04-20T03:52:17.245Z,80.8
2018-04-20T03:53:16.504Z,80.8
2018-04-20T03:54:16.768Z,80.8
2018-04-20T03:55:17.036Z,80.8
2018-04-20T03:56:16.369Z,81.0
2018-04-20T03:57:16.643Z,80.7
2018-04-20T03:58:16.903Z,80.2
2018-04-20T03:59:17.172Z,80.3
2018-04-20T04:00:16.444Z,80.6
2018-04-20T04:01:16.481Z,80.8
2018-04-20T04:02:16.759Z,81.0
2018-04-20T04:03:17.068Z,81.0
2018-04-20T04:04:16.328Z,81.1
2018-04-20T04:05:16.596Z,81.2
2018-04-20T04:06:16.855Z,81.2
2018-04-20T04:07:17.117Z,81.5
2018-04-20T04:08:16.382Z,81.3
2018-04-20T04:09:16.632Z,81.0
2018-04-20T04:10:16.897Z,81.6
2018-04-20T04:11:16.971Z,81.7
2018-04-20T04:12:17.254Z,81.8
2018-04-20T04:13:16.580Z,81.8
2018-04-20T04:14:16.854Z,81.5
2018-04-20T04:15:17.120Z,81.8
2018-04-20T04:16:16.374Z,81.6
2018-04-20T04:17:16.642Z,81.8
2018-04-20T04:18:16.913Z,81.8
2018-04-20T04:19:17.180Z,81.7
2018-04-20T04:20:16.455Z,81.7
2018-04-20T04:21:16.496Z,81.8
2018-04-20T04:22:16.775Z,82.0
2018-04-20T04:23:17.034Z,82.0
2018-04-20T04:24:16.294Z,81.8
2018-04-20T04:25:16.569Z,81.8
2018-04-20T04:26:16.850Z,81.8
2018-04-20T04:27:17.128Z,81.5
2018-04-20T04:28:16.386Z,81.5
2018-04-20T04:29:16.658Z,81.7
2018-04-20T04:30:16.931Z,81.7
2018-04-20T04:31:17.007Z,82.2
2018-04-20T04:32:16.281Z,82.3
2018-04-20T04:33:16.553Z,82.2
2018-04-20T04:34:16.817Z,82.0
2018-04-20T04:35:17.091Z,82.0
2018-04-20T04:36:16.354Z,82.2
2018-04-20T04:37:16.618Z,82.2
2018-04-20T04:38:16.929Z,82.0
2018-04-20T04:39:17.191Z,82.0
2018-04-20T04:40:16.451Z,81.8
2018-04-20T04:41:16.538Z,81.7
2018-04-20T04:42:16.804Z,81.2
2018-04-20T04:43:17.065Z,81.6
2018-04-20T04:44:16.327Z,81.5
2018-04-20T04:45:16.597Z,81.5
2018-04-20T04:46:16.863Z,81.7
2018-04-20T04:47:17.463Z,81.5
2018-04-20T04:48:16.733Z,81.2
2018-04-20T04:49:16.993Z,80.9
2018-04-20T04:50:16.266Z,80.9
2018-04-20T04:51:16.334Z,81.0
2018-04-20T04:52:16.601Z,80.8
2018-04-20T04:53:16.864Z,81.0
2018-04-20T04:54:17.388Z,80.8
2018-04-20T04:55:16.668Z,80.7
2018-04-20T04:56:16.938Z,80.3
2018-04-20T04:57:17.201Z,80.3
2018-04-20T04:58:16.465Z,80.3
2018-04-20T04:59:16.987Z,80.2
2018-04-20T05:00:17.268Z,80.2
2018-04-20T05:01:16.324Z,80.2
2018-04-20T05:02:16.587Z,80.0
2018-04-20T05:03:16.850Z,80.0
2018-04-20T05:04:17.139Z,79.8
2018-04-20T05:05:16.401Z,79.7
2018-04-20T05:06:16.658Z,79.7
2018-04-20T05:07:16.923Z,79.2
2018-04-20T05:08:17.191Z,79.0
2018-04-20T05:09:16.447Z,79.2
2018-04-20T05:10:16.720Z,78.7
2018-04-20T05:11:16.767Z,78.8
2018-04-20T05:12:17.065Z,78.8
2018-04-20T05:13:16.325Z,78.3
2018-04-20T05:14:16.586Z,78.4
2018-04-20T05:15:16.848Z,78.2
2018-04-20T05:16:17.106Z,78.2
2018-04-20T05:17:16.368Z,78.1
2018-04-20T05:18:16.638Z,77.9
2018-04-20T05:19:16.899Z,77.9
2018-04-20T05:20:17.184Z,77.7
2018-04-20T05:21:16.271Z,77.3
2018-04-20T05:22:16.544Z,77.0
2018-04-20T05:23:16.800Z,76.8
2018-04-20T05:24:17.073Z,76.1
2018-04-20T05:25:16.345Z,76.1
2018-04-20T05:26:16.615Z,75.8
2018-04-20T05:27:16.877Z,75.7
2018-04-20T05:28:17.139Z,75.5
2018-04-20T05:29:16.409Z,75.5
2018-04-20T05:30:16.683Z,75.6
2018-04-20T05:31:16.745Z,75.2
2018-04-20T05:32:17.017Z,74.9
2018-04-20T05:33:16.281Z,75.6
2018-04-20T05:34:16.543Z,75.7
2018-04-20T05:35:16.823Z,75.5
2018-04-20T05:36:17.095Z,75.3
2018-04-20T05:37:16.357Z,74.8
2018-04-20T05:38:16.623Z,74.4
2018-04-20T05:39:16.887Z,74.3
2018-04-20T05:40:17.146Z,74.2
2018-04-20T05:41:16.295Z,73.8
2018-04-20T05:42:16.564Z,73.8
2018-04-20T05:43:16.821Z,73.9
2018-04-20T05:44:17.085Z,73.8
2018-04-20T05:45:16.351Z,73.8
2018-04-20T05:46:16.618Z,73.6
2018-04-20T05:47:17.146Z,73.0
2018-04-20T05:48:16.423Z,72.7
2018-04-20T05:49:16.696Z,73.3
2018-04-20T05:50:16.962Z,73.2
2018-04-20T05:51:17.012Z,73.0
2018-04-20T05:52:16.268Z,72.7
2018-04-20T05:53:16.528Z,71.8
2018-04-20T05:54:16.795Z,71.4
2018-04-20T05:55:17.059Z,71.6
2018-04-20T05:56:16.316Z,71.7
2018-04-20T05:57:16.576Z,72.3
2018-04-20T05:58:16.838Z,72.0
2018-04-20T05:59:17.107Z,72.0
2018-04-20T06:00:16.387Z,71.8
2018-04-20T06:01:16.525Z,71.6
2018-04-20T06:02:16.807Z,71.2
2018-04-20T06:03:17.071Z,70.7
2018-04-20T06:04:16.330Z,70.8
2018-04-20T06:05:16.601Z,71.2
2018-04-20T06:06:16.859Z,70.3
2018-04-20T06:07:17.138Z,69.2
2018-04-20T06:08:16.402Z,68.7
2018-04-20T06:09:16.673Z,68.7
2018-04-20T06:10:16.943Z,68.5
2018-04-20T06:11:17.000Z,68.0
2018-04-20T06:12:16.266Z,68.0
2018-04-20T06:13:16.543Z,67.0
2018-04-20T06:14:16.815Z,66.7
2018-04-20T06:15:17.082Z,66.5
2018-04-20T06:16:16.344Z,65.4
2018-04-20T06:17:16.604Z,65.0
2018-04-20T06:18:16.879Z,63.5
2018-04-20T06:19:17.155Z,64.0
2018-04-20T06:20:16.423Z,63.3
2018-04-20T06:21:16.464Z,62.6
2018-04-20T06:22:16.731Z,62.4
2018-04-20T06:23:16.996Z,61.2
2018-04-20T06:24:16.266Z,60.6
2018-04-20T06:25:16.533Z,60.1
2018-04-20T06:26:16.791Z,59.8
2018-04-20T06:27:17.044Z,60.0
2018-04-20T06:28:16.314Z,59.0
2018-04-20T06:29:16.578Z,58.2
2018-04-20T06:30:16.855Z,56.8
2018-04-20T06:31:16.914Z,55.8
2018-04-20T06:32:17.177Z,55.0
2018-04-20T06:33:16.436Z,53.8
2018-04-20T06:34:16.695Z,53.5
2018-04-20T06:35:16.961Z,52.8
2018-04-20T06:36:17.214Z,52.0
2018-04-20T06:37:16.481Z,51.4
2018-04-20T06:38:16.743Z,51.0
2018-04-20T06:39:17.002Z,51.2
2018-04-20T06:40:16.279Z,50.6
2018-04-20T06:41:16.326Z,49.3
2018-04-20T06:42:16.588Z,48.6
2018-04-20T06:43:16.851Z,48.0
2018-04-20T06:44:17.149Z,47.8
2018-04-20T06:45:16.415Z,47.0
2018-04-20T06:46:16.688Z,47.4
2018-04-20T06:47:16.953Z,46.9
2018-04-20T06:48:17.215Z,46.5
2018-04-20T06:49:16.470Z,45.6
2018-04-20T06:50:16.742Z,45.8
2018-04-20T06:51:16.801Z,45.0
2018-04-20T06:52:17.062Z,45.0
2018-04-20T06:53:16.322Z,44.6
2018-04-20T06:54:16.589Z,44.5
2018-04-20T06:55:16.864Z,44.4
2018-04-20T06:56:17.130Z,44.0
2018-04-20T06:57:16.386Z,43.5
2018-04-20T06:58:16.647Z,42.8
2018-04-20T06:59:16.903Z,42.6
2018-04-20T07:00:17.168Z,42.1
2018-04-20T07:01:16.267Z,41.5
2018-04-20T07:02:16.536Z,42.1
2018-04-20T07:03:16.795Z,40.9
2018-04-20T07:04:17.051Z,40.4
2018-04-20T07:05:16.310Z,40.1
2018-04-20T07:06:16.580Z,39.6
2018-04-20T07:07:16.842Z,40.3
2018-04-20T07:08:17.114Z,39.9
2018-04-20T07:09:16.378Z,39.1
2018-04-20T07:10:16.646Z,38.4
2018-04-20T07:11:16.699Z,37.5
2018-04-20T07:12:17.129Z,37.1
2018-04-20T07:13:16.457Z,36.4
2018-04-20T07:14:16.734Z,36.2
2018-04-20T07:15:17.009Z,36.0
2018-04-20T07:16:16.271Z,35.7
2018-04-20T07:17:16.556Z,34.6
2018-04-20T07:18:16.891Z,34.9
2018-04-20T07:19:17.191Z,36.0
2018-04-20T07:20:16.458Z,35.1
2018-04-20T07:21:16.534Z,35.6
2018-04-20T07:22:16.805Z,35.4
2018-04-20T07:23:17.170Z,35.0
2018-04-20T07:24:16.435Z,33.7
2018-04-20T07:25:16.702Z,33.4
2018-04-20T07:26:16.970Z,33.6
2018-04-20T07:27:17.239Z,33.5
2018-04-20T07:28:16.506Z,34.3
2018-04-20T07:29:16.770Z,33.1
2018-04-20T07:30:17.058Z,32.1
2018-04-20T07:31:17.089Z,31.5
2018-04-20T07:32:16.359Z,32.2
2018-04-20T07:33:16.612Z,31.2
2018-04-20T07:34:16.907Z,30.6
2018-04-20T07:35:17.176Z,31.8
2018-04-20T07:36:16.438Z,31.9
2018-04-20T07:37:16.698Z,30.5
2018-04-20T07:38:16.958Z,30.0
2018-04-20T07:39:17.227Z,31.1
2018-04-20T07:40:16.553Z,30.6
2018-04-20T07:41:16.578Z,30.6
2018-04-20T07:42:16.845Z,31.1
2018-04-20T07:43:17.112Z,31.1
2018-04-20T07:44:16.390Z,32.0
2018-04-20T07:45:16.652Z,32.4
2018-04-20T07:46:16.917Z,31.9
2018-04-20T07:47:17.176Z,31.7
2018-04-20T07:48:16.440Z,31.6
2018-04-20T07:49:16.701Z,31.1
2018-04-20T07:50:16.993Z,31.4
2018-04-20T07:51:17.023Z,31.2
2018-04-20T07:52:16.294Z,30.6
2018-04-20T07:53:16.555Z,30.4
2018-04-20T07:54:16.819Z,32.8
2018-04-20T07:55:17.080Z,32.1
2018-04-20T07:56:16.339Z,32.2
2018-04-20T07:57:16.609Z,31.2
2018-04-20T07:58:16.880Z,30.8
2018-04-20T07:59:17.146Z,30.3
2018-04-20T08:00:16.431Z,31.1
2018-04-20T08:01:16.498Z,30.3
2018-04-20T08:02:16.770Z,29.8
2018-04-20T08:03:17.037Z,29.4
2018-04-20T08:04:16.299Z,29.4
2018-04-20T08:05:16.561Z,29.3
2018-04-20T08:06:16.846Z,28.8
2018-04-20T08:07:17.109Z,29.0
2018-04-20T08:08:16.436Z,29.0
2018-04-20T08:09:16.711Z,29.1
2018-04-20T08:10:16.973Z,28.6
2018-04-20T08:11:17.019Z,29.1
2018-04-20T08:12:16.279Z,29.4
2018-04-20T08:13:16.548Z,29.2
2018-04-20T08:14:16.806Z,28.8
2018-04-20T08:15:17.082Z,29.8
2018-04-20T08:16:16.350Z,28.9
2018-04-20T08:17:16.617Z,28.9
2018-04-20T08:18:16.888Z,28.1
2018-04-20T08:19:17.154Z,28.4
2018-04-20T08:20:16.419Z,28.4
2018-04-20T08:21:16.471Z,28.3
2018-04-20T08:22:17.588Z,28.3
2018-04-20T08:23:16.854Z,28.1
2018-04-20T08:24:17.117Z,28.4
2018-04-20T08:25:16.379Z,29.1
2018-04-20T08:26:16.643Z,28.5
2018-04-20T08:27:16.914Z,28.6
2018-04-20T08:28:17.184Z,28.3
2018-04-20T08:29:16.450Z,28.4
2018-04-20T08:30:16.710Z,28.3
2018-04-20T08:31:16.798Z,28.6
2018-04-20T08:32:17.059Z,27.6
2018-04-20T08:33:16.321Z,27.1
2018-04-20T08:34:16.674Z,26.8
2018-04-20T08:35:16.965Z,29.2
2018-04-20T08:36:17.232Z,27.6
2018-04-20T08:37:16.495Z,27.8
2018-04-20T08:38:16.771Z,27.6
2018-04-20T08:39:17.040Z,26.8
2018-04-20T08:40:16.316Z,26.1
2018-04-20T08:41:16.342Z,27.6
2018-04-20T08:42:16.610Z,27.7
2018-04-20T08:43:16.926Z,26.9
2018-04-20T08:44:17.191Z,25.8
2018-04-20T08:45:16.452Z,25.2
2018-04-20T08:46:16.711Z,25.8
2018-04-20T08:47:16.972Z,25.1
2018-04-20T08:48:17.227Z,25.6
2018-04-20T08:49:16.490Z,25.9
2018-04-20T08:50:16.765Z,24.2
2018-04-20T08:51:16.791Z,23.8
2018-04-20T08:52:17.047Z,23.9
2018-04-20T08:53:16.303Z,23.9
2018-04-20T08:54:16.575Z,23.6
2018-04-20T08:55:16.839Z,23.2
2018-04-20T08:56:17.109Z,23.0
2018-04-20T08:57:16.371Z,23.1
2018-04-20T08:58:16.628Z,23.9
2018-04-20T08:59:16.888Z,24.1
2018-04-20T09:00:17.154Z,23.9
2018-04-20T09:01:17.229Z,23.2
2018-04-20T09:02:16.512Z,23.3
2018-04-20T09:03:16.770Z,23.3
2018-04-20T09:04:17.032Z,24.3
2018-04-20T09:05:16.292Z,24.8
2018-04-20T09:06:16.568Z,25.4
2018-04-20T09:07:16.835Z,23.5
2018-04-20T09:08:17.119Z,23.6
2018-04-20T09:09:16.383Z,23.3
2018-04-20T09:10:16.649Z,23.4
2018-04-20T09:11:16.687Z,23.1
2018-04-20T09:12:16.947Z,23.1
2018-04-20T09:13:17.210Z,23.3
2018-04-20T09:14:16.474Z,22.8
2018-04-20T09:15:16.730Z,24.4
2018-04-20T09:16:17.005Z,25.2
2018-04-20T09:17:16.271Z,25.7
2018-04-20T09:18:16.579Z,26.2
2018-04-20T09:19:16.842Z,26.4
2018-04-20T09:20:17.115Z,25.4
2018-04-20T09:21:17.145Z,25.1
2018-04-20T09:22:16.413Z,23.6
2018-04-20T09:23:16.676Z,23.6
2018-04-20T09:24:16.939Z,23.6
2018-04-20T09:25:17.200Z,23.9
2018-04-20T09:26:16.464Z,24.9
2018-04-20T09:27:16.780Z,26.3
2018-04-20T09:28:17.043Z,26.6
2018-04-20T09:29:16.301Z,25.4
2018-04-20T09:30:16.567Z,24.4
2018-04-20T09:31:16.620Z,24.6
2018-04-20T09:32:16.889Z,25.1
2018-04-20T09:33:17.169Z,25.0
2018-04-20T09:34:16.438Z,25.8
2018-04-20T09:35:16.714Z,24.9
2018-04-20T09:36:16.981Z,25.3
2018-04-20T09:37:17.248Z,25.0
2018-04-20T09:38:16.505Z,24.9
2018-04-20T09:39:16.778Z,24.4
2018-04-20T09:40:17.040Z,24.4
2018-04-20T09:41:17.087Z,23.9
2018-04-20T09:42:16.360Z,24.0
2018-04-20T09:43:16.628Z,24.4
2018-04-20T09:44:16.892Z,24.4
2018-04-20T09:45:17.157Z,24.8
2018-04-20T09:46:16.575Z,23.8
2018-04-20T09:47:16.841Z,22.9
2018-04-20T09:48:17.103Z,23.9
2018-04-20T09:49:16.714Z,22.5
2018-04-20T09:50:16.992Z,22.1
2018-04-20T09:51:17.046Z,22.9
2018-04-20T09:52:16.302Z,22.2
2018-04-20T09:53:16.566Z,21.7
2018-04-20T09:54:16.829Z,21.4
2018-04-20T09:55:17.370Z,22.9
2018-04-20T09:56:16.644Z,22.9
2018-04-20T09:57:16.907Z,23.0
2018-04-20T09:58:17.295Z,21.6
2018-04-20T09:59:16.557Z,22.6
2018-04-20T10:00:16.846Z,23.8
2018-04-20T10:01:16.878Z,22.9
2018-04-20T10:02:17.144Z,23.1
2018-04-20T10:03:16.402Z,23.2
2018-04-20T10:04:16.664Z,22.6
2018-04-20T10:05:16.926Z,22.1
2018-04-20T10:06:17.193Z,22.1
2018-04-20T10:07:16.458Z,22.6
2018-04-20T10:08:16.722Z,22.1
2018-04-20T10:09:16.995Z,22.2
2018-04-20T10:10:16.263Z,21.6
2018-04-20T10:11:16.317Z,21.6
2018-04-20T10:12:16.590Z,22.6
2018-04-20T10:13:16.852Z,21.1
2018-04-20T10:14:17.125Z,21.2
2018-04-20T10:15:16.382Z,21.3
2018-04-20T10:16:16.642Z,22.0
2018-04-20T10:17:16.955Z,23.1
2018-04-20T10:18:17.225Z,21.2
2018-04-20T10:19:16.481Z,22.5
2018-04-20T10:20:16.742Z,22.5
2018-04-20T10:21:16.790Z,22.6
2018-04-20T10:22:17.054Z,21.5
2018-04-20T10:23:16.314Z,20.9
2018-04-20T10:24:16.581Z,21.4
2018-04-20T10:25:16.841Z,20.7
2018-04-20T10:26:17.107Z,20.8
2018-04-20T10:27:16.366Z,20.9
2018-04-20T10:28:16.637Z,20.7
2018-04-20T10:29:16.973Z,22.1
2018-04-20T10:30:17.248Z,21.6
2018-04-20T10:31:16.298Z,21.4
2018-04-20T10:32:16.560Z,21.3
2018-04-20T10:33:16.819Z,20.9
2018-04-20T10:34:17.083Z,20.6
2018-04-20T10:35:16.351Z,20.4
2018-04-20T10:36:16.609Z,21.3
2018-04-20T10:37:16.869Z,21.4
2018-04-20T10:38:17.182Z,21.4
2018-04-20T10:39:16.442Z,21.4
2018-04-20T10:40:16.712Z,21.2
2018-04-20T10:41:16.731Z,20.8
2018-04-20T10:42:16.998Z,19.9
2018-04-20T10:43:16.260Z,20.1
2018-04-20T10:44:16.519Z,20.1
2018-04-20T10:45:16.778Z,20.4
2018-04-20T10:46:17.060Z,21.5
2018-04-20T10:47:16.325Z,21.1
2018-04-20T10:48:16.596Z,21.2
2018-04-20T10:49:16.857Z,20.8
2018-04-20T10:50:17.145Z,20.4
2018-04-20T10:51:17.196Z,19.8
2018-04-20T10:52:16.457Z,19.7
2018-04-20T10:53:16.721Z,19.9
2018-04-20T10:54:16.988Z,21.1
2018-04-20T10:55:16.248Z,21.1
2018-04-20T10:56:16.517Z,21.3
2018-04-20T10:57:16.770Z,20.1
2018-04-20T10:58:17.037Z,19.8
2018-04-20T10:59:16.301Z,19.6
2018-04-20T11:00:16.566Z,20.6
2018-04-20T11:01:16.615Z,20.9
2018-04-20T11:02:16.884Z,20.4
2018-04-20T11:03:17.154Z,20.8
2018-04-20T11:04:16.427Z,20.6
2018-04-20T11:05:16.705Z,20.6
2018-04-20T11:06:16.962Z,19.8
2018-04-20T11:07:17.222Z,20.8
2018-04-20T11:08:16.499Z,21.1
2018-04-20T11:09:16.769Z,20.7
2018-04-20T11:10:17.039Z,20.3
2018-04-20T11:11:17.069Z,20.1
2018-04-20T11:12:16.349Z,19.8
2018-04-20T11:13:16.618Z,19.9
2018-04-20T11:14:16.888Z,20.1
2018-04-20T11:15:17.150Z,19.9
2018-04-20T11:16:16.418Z,20.1
2018-04-20T11:17:16.677Z,20.1
2018-04-20T11:18:16.942Z,20.4
2018-04-20T11:19:17.201Z,20.1
2018-04-20T11:20:16.472Z,19.9
2018-04-20T11:21:16.507Z,19.8
2018-04-20T11:22:16.769Z,20.4
2018-04-20T11:23:17.030Z,20.1
2018-04-20T11:24:16.298Z,19.9
2018-04-20T11:25:16.551Z,20.2
2018-04-20T11:26:16.802Z,20.8
2018-04-20T11:27:17.329Z,20.4
2018-04-20T11:28:16.590Z,20.4
2018-04-20T11:29:16.853Z,20.3
2018-04-20T11:30:17.127Z,21.5
2018-04-20T11:31:17.219Z,20.9
2018-04-20T11:32:16.480Z,20.8
2018-04-20T11:33:16.744Z,20.3
2018-04-20T11:34:17.001Z,20.2
2018-04-20T11:35:16.260Z,20.1
2018-04-20T11:36:16.540Z,20.4
2018-04-20T11:37:16.817Z,20.9
2018-04-20T11:38:17.074Z,21.4
2018-04-20T11:39:16.341Z,21.2
2018-04-20T11:40:16.612Z,20.5
2018-04-20T11:41:16.659Z,20.5
2018-04-20T11:42:16.931Z,20.6
2018-04-20T11:43:17.197Z,20.3
2018-04-20T11:44:16.472Z,20.6
2018-04-20T11:45:16.741Z,19.9
2018-04-20T11:46:17.008Z,19.6
2018-04-20T11:47:16.354Z,20.2
2018-04-20T11:48:16.631Z,20.6
2018-04-20T11:49:16.898Z,20.6
2018-04-20T11:50:17.168Z,20.3
2018-04-20T11:51:17.205Z,19.2
2018-04-20T11:52:16.466Z,20.1
2018-04-20T11:53:16.744Z,19.8
2018-04-20T11:54:17.004Z,20.4
2018-04-20T11:55:16.271Z,20.1
2018-04-20T11:56:16.545Z,20.1
2018-04-20T11:57:16.806Z,20.8
2018-04-20T11:58:17.276Z,21.0
2018-04-20T11:59:16.540Z,20.9
2018-04-20T12:00:16.805Z,20.9
2018-04-20T12:01:16.862Z,21.2
2018-04-20T12:02:17.243Z,21.6
2018-04-20T12:03:16.560Z,21.6
2018-04-20T12:04:16.828Z,21.6
2018-04-20T12:05:17.111Z,21.1
2018-04-20T12:06:16.407Z,20.6
2018-04-20T12:07:16.670Z,21.2
2018-04-20T12:08:16.933Z,21.4
2018-04-20T12:09:17.196Z,21.1
2018-04-20T12:10:16.459Z,21.2
2018-04-20T12:11:16.493Z,21.4
2018-04-20T12:12:16.768Z,21.4
2018-04-20T12:13:17.037Z,21.4
2018-04-20T12:14:16.309Z,21.0
2018-04-20T12:15:16.574Z,20.4
2018-04-20T12:16:16.837Z,20.6
2018-04-20T12:17:17.104Z,20.9
2018-04-20T12:18:16.362Z,21.3
2018-04-20T12:19:16.619Z,21.5
2018-04-20T12:20:16.887Z,22.0
2018-04-20T12:21:17.002Z,21.8
2018-04-20T12:22:16.263Z,21.7
2018-04-20T12:23:16.526Z,21.6
2018-04-20T12:24:16.794Z,21.5
2018-04-20T12:25:17.058Z,21.5
2018-04-20T12:26:16.321Z,21.7
2018-04-20T12:27:16.730Z,21.4
2018-04-20T12:28:17.287Z,22.0
2018-04-20T12:29:16.543Z,21.4
2018-04-20T12:30:16.810Z,21.6
2018-04-20T12:31:16.861Z,21.8
2018-04-20T12:32:17.125Z,21.8
2018-04-20T12:33:16.388Z,21.9
2018-04-20T12:34:16.650Z,21.6
2018-04-20T12:35:16.911Z,21.8
2018-04-20T12:36:17.183Z,21.4
2018-04-20T12:37:16.455Z,21.1
2018-04-20T12:38:16.725Z,21.2
2018-04-20T12:39:16.993Z,21.1
2018-04-20T12:40:16.260Z,21.1
2018-04-20T12:41:16.430Z,21.5
2018-04-20T12:42:16.702Z,21.4
2018-04-20T12:43:16.965Z,21.7
2018-04-20T12:44:17.327Z,21.6
2018-04-20T12:45:16.595Z,21.4
2018-04-20T12:46:16.865Z,21.8
2018-04-20T12:47:17.130Z,21.4
2018-04-20T12:48:16.385Z,21.4
2018-04-20T12:49:16.658Z,21.3
2018-04-20T12:50:16.931Z,21.4
2018-04-20T12:51:17.070Z,21.8
2018-04-20T12:52:16.341Z,21.6
2018-04-20T12:53:16.608Z,21.4
2018-04-20T12:54:16.875Z,21.4
2018-04-20T12:55:17.143Z,21.8
2018-04-20T12:56:16.424Z,21.4
2018-04-20T12:57:16.686Z,21.6
2018-04-20T12:58:16.952Z,21.9
2018-04-20T12:59:17.220Z,21.7
2018-04-20T13:00:16.482Z,21.4
2018-04-20T13:01:16.523Z,20.8
2018-04-20T13:02:16.780Z,20.9
2018-04-20T13:03:17.055Z,20.9
2018-04-20T13:04:16.305Z,20.9
2018-04-20T13:05:16.566Z,21.1
2018-04-20T13:06:16.833Z,21.0
2018-04-20T13:07:17.093Z,21.4
2018-04-20T13:08:16.359Z,21.9
2018-04-20T13:09:16.625Z,20.9
2018-04-20T13:10:16.879Z,20.8
2018-04-20T13:11:16.944Z,20.9
2018-04-20T13:12:17.215Z,20.9
2018-04-20T13:13:16.483Z,21.2
2018-04-20T13:14:16.758Z,21.1
2018-04-20T13:15:17.029Z,21.3
2018-04-20T13:16:16.293Z,21.4
2018-04-20T13:17:16.556Z,21.4
2018-04-20T13:18:16.821Z,21.6